createdAt,value
2017-11-04T00:00:53.889Z,19.20
2017-11-04T00:01:59.205Z,19.20
2017-11-04T00:03:04.730Z,19.20
2017-11-04T00:04:09.839Z,19.20
2017-11-04T00:05:15.514Z,19.20
2017-11-04T00:06:20.885Z,19.20
2017-11-04T00:07:26.239Z,19.20
2017-11-04T00:08:32.800Z,19.20
2017-11-04T00:09:38.030Z,19.20
2017-11-04T00:10:43.224Z,19.20
2017-11-04T00:11:48.280Z,19.20
2017-11-04T00:12:53.404Z,19.10
2017-11-04T00:13:58.787Z,19.10
2017-11-04T00:15:04.212Z,19.10
2017-11-04T00:16:09.629Z,19.10
2017-11-04T00:17:16.406Z,19.10
2017-11-04T00:18:21.799Z,19.10
2017-11-04T00:19:27.108Z,19.10
2017-11-04T00:20:32.090Z,19.10
2017-11-04T00:21:37.140Z,19.10
2017-11-04T00:22:42.453Z,19.10
2017-11-04T00:23:47.444Z,19.10
2017-11-04T00:24:52.757Z,19.10
2017-11-04T00:25:58.276Z,19.10
2017-11-04T00:27:03.629Z,19.10
2017-11-04T00:28:08.752Z,19.10
2017-11-04T00:29:14.256Z,19.10
2017-11-04T00:30:19.680Z,19.10
2017-11-04T00:31:24.852Z,19.00
2017-11-04T00:32:29.839Z,19.00
2017-11-04T00:33:34.918Z,19.00
2017-11-04T00:34:39.964Z,19.00
2017-11-04T00:35:45.144Z,19.00
2017-11-04T00:36:50.105Z,19.00
2017-11-04T00:37:55.039Z,19.00
2017-11-04T00:38:59.904Z,19.00
2017-11-04T00:40:04.715Z,19.00
2017-11-04T00:41:09.465Z,19.00
2017-11-04T00:42:14.306Z,19.00
2017-11-04T00:43:19.020Z,19.00
2017-11-04T00:44:23.578Z,19.00
2017-11-04T00:45:28.282Z,19.00
2017-11-04T00:46:33.083Z,19.00
2017-11-04T00:47:37.801Z,18.90
2017-11-04T00:48:42.328Z,18.90
2017-11-04T00:49:46.927Z,18.90
2017-11-04T00:50:51.675Z,18.90
2017-11-04T00:51:56.220Z,18.90
2017-11-04T00:53:00.759Z,18.90
2017-11-04T00:54:05.603Z,18.90
2017-11-04T00:55:10.210Z,18.90
2017-11-04T00:56:14.955Z,18.90
2017-11-04T00:57:19.786Z,18.90
2017-11-04T00:58:24.318Z,18.90
2017-11-04T00:59:29.035Z,18.90
2017-11-04T01:00:33.863Z,18.90
2017-11-04T01:01:38.564Z,18.90
2017-11-04T01:02:43.318Z,18.90
2017-11-04T01:03:48.029Z,18.90
2017-11-04T01:04:52.722Z,18.90
2017-11-04T01:05:57.564Z,18.90
2017-11-04T01:07:02.379Z,18.90
2017-11-04T01:08:06.970Z,18.90
2017-11-04T01:09:11.525Z,18.80
2017-11-04T01:10:16.190Z,18.90
2017-11-04T01:11:20.914Z,18.80
2017-11-04T01:12:25.634Z,18.80
2017-11-04T01:13:30.397Z,18.80
2017-11-04T01:14:35.055Z,18.80
2017-11-04T01:15:39.757Z,18.80
2017-11-04T01:16:44.589Z,18.80
2017-11-04T01:17:49.396Z,18.80
2017-11-04T01:18:53.996Z,18.80
2017-11-04T01:19:58.729Z,18.80
2017-11-04T01:21:03.432Z,18.80
2017-11-04T01:22:08.176Z,18.80
2017-11-04T01:23:12.721Z,18.80
2017-11-04T01:24:17.366Z,18.80
2017-11-04T01:25:21.953Z,18.80
2017-11-04T01:26:26.520Z,18.80
2017-11-04T01:27:31.091Z,18.80
2017-11-04T01:28:35.979Z,18.80
2017-11-04T01:29:40.661Z,18.80
2017-11-04T01:30:45.333Z,18.80
2017-11-04T01:31:50.158Z,18.80
2017-11-04T01:32:54.969Z,18.80
2017-11-04T01:33:59.528Z,18.80
2017-11-04T01:35:04.173Z,18.80
2017-11-04T01:36:09.029Z,18.80
2017-11-04T01:37:13.988Z,18.80
2017-11-04T01:38:18.704Z,18.80
2017-11-04T01:39:23.421Z,18.80
2017-11-04T01:40:28.160Z,18.80
2017-11-04T01:41:32.868Z,18.80
2017-11-04T01:42:37.633Z,18.80
2017-11-04T01:43:42.416Z,18.80
2017-11-04T01:44:47.156Z,18.80
2017-11-04T01:45:51.714Z,18.80
2017-11-04T01:46:56.517Z,18.70
2017-11-04T01:48:01.101Z,18.70
2017-11-04T01:49:05.947Z,18.70
2017-11-04T01:50:10.672Z,18.70
2017-11-04T01:51:15.380Z,18.70
2017-11-04T01:52:20.077Z,18.70
2017-11-04T01:53:24.780Z,18.70
2017-11-04T01:54:29.457Z,18.70
2017-11-04T01:55:34.037Z,18.70
2017-11-04T01:56:38.660Z,18.70
2017-11-04T01:57:43.512Z,18.70
2017-11-04T01:58:48.238Z,18.70
2017-11-04T01:59:52.989Z,18.70
2017-11-04T02:00:57.706Z,18.70
2017-11-04T02:02:02.568Z,18.70
2017-11-04T02:03:08.588Z,18.70
2017-11-04T02:04:13.330Z,18.70
2017-11-04T02:05:17.875Z,18.70
2017-11-04T02:06:22.570Z,18.70
2017-11-04T02:07:27.413Z,18.70
2017-11-04T02:08:31.997Z,18.70
2017-11-04T02:09:36.631Z,18.70
2017-11-04T02:10:41.231Z,18.70
2017-11-04T02:11:45.946Z,18.70
2017-11-04T02:12:50.575Z,18.70
2017-11-04T02:13:55.237Z,18.70
2017-11-04T02:14:59.994Z,18.70
2017-11-04T02:16:04.582Z,18.70
2017-11-04T02:17:09.313Z,18.70
2017-11-04T02:18:14.090Z,18.70
2017-11-04T02:19:18.857Z,18.70
2017-11-04T02:20:23.561Z,18.70
2017-11-04T02:21:28.377Z,18.70
2017-11-04T02:22:33.197Z,18.70
2017-11-04T02:23:37.790Z,18.70
2017-11-04T02:24:42.533Z,18.70
2017-11-04T02:25:47.048Z,18.70
2017-11-04T02:26:51.735Z,18.70
2017-11-04T02:27:56.267Z,18.70
2017-11-04T02:29:01.120Z,18.60
2017-11-04T02:30:05.689Z,18.70
2017-11-04T02:31:10.235Z,18.70
2017-11-04T02:32:15.226Z,18.60
2017-11-04T02:33:20.350Z,18.60
2017-11-04T02:34:25.147Z,18.70
2017-11-04T02:35:29.948Z,18.60
2017-11-04T02:36:34.685Z,18.60
2017-11-04T02:37:39.290Z,18.60
2017-11-04T02:38:43.877Z,18.60
2017-11-04T02:39:48.607Z,18.60
2017-11-04T02:40:53.454Z,18.60
2017-11-04T02:41:58.316Z,18.60
2017-11-04T02:43:03.009Z,18.60
2017-11-04T02:44:07.771Z,18.60
2017-11-04T02:45:12.376Z,18.60
2017-11-04T02:46:17.086Z,18.60
2017-11-04T02:47:21.993Z,18.60
2017-11-04T02:48:26.679Z,18.60
2017-11-04T02:49:31.435Z,18.60
2017-11-04T02:50:36.025Z,18.60
2017-11-04T02:51:40.845Z,18.60
2017-11-04T02:52:45.564Z,18.60
2017-11-04T02:53:50.420Z,18.60
2017-11-04T02:54:55.229Z,18.60
2017-11-04T02:55:59.959Z,18.60
2017-11-04T02:57:04.689Z,18.60
2017-11-04T02:58:09.429Z,18.60
2017-11-04T02:59:14.245Z,18.60
2017-11-04T03:00:18.815Z,18.60
2017-11-04T03:01:23.528Z,18.60
2017-11-04T03:02:28.456Z,18.60
2017-11-04T03:03:33.219Z,18.60
2017-11-04T03:04:37.863Z,18.60
2017-11-04T03:05:42.421Z,18.60
2017-11-04T03:06:47.143Z,18.60
2017-11-04T03:07:51.826Z,18.60
2017-11-04T03:08:56.486Z,18.60
2017-11-04T03:10:01.401Z,18.60
2017-11-04T03:11:06.045Z,18.60
2017-11-04T03:12:10.888Z,18.60
2017-11-04T03:13:15.454Z,18.60
2017-11-04T03:14:20.012Z,18.60
2017-11-04T03:15:24.858Z,18.60
2017-11-04T03:16:29.421Z,18.50
2017-11-04T03:17:34.040Z,18.50
2017-11-04T03:18:38.637Z,18.50
2017-11-04T03:19:43.478Z,18.50
2017-11-04T03:20:48.075Z,18.50
2017-11-04T03:21:52.822Z,18.50
2017-11-04T03:22:57.555Z,18.50
2017-11-04T03:24:02.129Z,18.50
2017-11-04T03:25:06.972Z,18.50
2017-11-04T03:26:11.645Z,18.50
2017-11-04T03:27:16.470Z,18.50
2017-11-04T03:28:21.130Z,18.50
2017-11-04T03:29:25.840Z,18.50
2017-11-04T03:30:30.522Z,18.50
2017-11-04T03:31:35.296Z,18.50
2017-11-04T03:32:40.099Z,18.50
2017-11-04T03:33:44.801Z,18.50
2017-11-04T03:34:49.398Z,18.50
2017-11-04T03:35:54.074Z,18.50
2017-11-04T03:36:58.638Z,18.50
2017-11-04T03:38:03.499Z,18.50
2017-11-04T03:39:08.255Z,18.50
2017-11-04T03:40:12.940Z,18.50
2017-11-04T03:41:17.739Z,18.50
2017-11-04T03:42:22.509Z,18.50
2017-11-04T03:43:27.192Z,18.50
2017-11-04T03:44:32.073Z,18.50
2017-11-04T03:45:36.799Z,18.50
2017-11-04T03:46:41.608Z,18.50
2017-11-04T03:47:46.141Z,18.50
2017-11-04T03:48:50.739Z,18.50
2017-11-04T03:49:55.429Z,18.50
2017-11-04T03:51:00.021Z,18.50
2017-11-04T03:52:04.563Z,18.50
2017-11-04T03:53:09.370Z,18.50
2017-11-04T03:54:14.065Z,18.50
2017-11-04T03:55:19.419Z,18.50
2017-11-04T03:56:23.982Z,18.50
2017-11-04T03:57:28.737Z,18.50
2017-11-04T03:58:33.590Z,18.50
2017-11-04T03:59:38.306Z,18.50
2017-11-04T04:00:43.199Z,18.50
2017-11-04T04:01:47.947Z,18.50
2017-11-04T04:02:52.674Z,18.50
2017-11-04T04:03:57.534Z,18.50
2017-11-04T04:05:02.426Z,18.50
2017-11-04T04:06:07.566Z,18.50
2017-11-04T04:07:12.151Z,18.50
2017-11-04T04:08:16.886Z,18.50
2017-11-04T04:09:21.687Z,18.50
2017-11-04T04:10:26.533Z,18.50
2017-11-04T04:11:31.106Z,18.50
2017-11-04T04:12:36.008Z,18.50
2017-11-04T04:13:40.952Z,18.50
2017-11-04T04:14:45.589Z,18.50
2017-11-04T04:15:50.325Z,18.50
2017-11-04T04:16:55.181Z,18.50
2017-11-04T04:17:59.921Z,18.50
2017-11-04T04:19:04.680Z,18.50
2017-11-04T04:20:09.549Z,18.50
2017-11-04T04:21:14.278Z,18.50
2017-11-04T04:22:18.824Z,18.40
2017-11-04T04:23:23.496Z,18.50
2017-11-04T04:24:28.307Z,18.50
2017-11-04T04:25:33.128Z,18.50
2017-11-04T04:26:37.855Z,18.50
2017-11-04T04:27:42.588Z,18.50
2017-11-04T04:28:47.308Z,18.50
2017-11-04T04:29:52.404Z,18.50
2017-11-04T04:30:57.302Z,18.40
2017-11-04T04:32:02.531Z,18.50
2017-11-04T04:33:07.567Z,18.40
2017-11-04T04:34:12.457Z,18.40
2017-11-04T04:35:18.045Z,18.50
2017-11-04T04:36:23.478Z,18.50
2017-11-04T04:37:29.103Z,18.50
2017-11-04T04:38:34.241Z,18.50
2017-11-04T04:39:39.250Z,18.50
2017-11-04T04:40:44.475Z,18.50
2017-11-04T04:41:49.651Z,18.50
2017-11-04T04:42:54.675Z,18.50
2017-11-04T04:43:59.757Z,18.50
2017-11-04T04:45:05.274Z,18.50
2017-11-04T04:46:10.431Z,18.50
2017-11-04T04:47:15.328Z,18.50
2017-11-04T04:48:20.452Z,18.50
2017-11-04T04:49:25.533Z,18.50
2017-11-04T04:50:30.501Z,18.50
2017-11-04T04:51:36.029Z,18.50
2017-11-04T04:52:42.913Z,18.50
2017-11-04T04:53:49.286Z,18.50
2017-11-04T04:54:55.193Z,18.50
2017-11-04T04:56:01.084Z,18.50
2017-11-04T04:57:06.809Z,18.50
2017-11-04T04:58:12.735Z,18.50
2017-11-04T04:59:18.924Z,18.50
2017-11-04T05:00:24.555Z,18.50
2017-11-04T05:01:29.683Z,18.50
2017-11-04T05:02:35.416Z,18.50
2017-11-04T05:03:41.480Z,18.50
2017-11-04T05:04:47.409Z,18.50
2017-11-04T05:05:53.197Z,18.50
2017-11-04T05:06:58.884Z,18.50
2017-11-04T05:08:05.830Z,18.50
2017-11-04T05:09:11.761Z,18.50
2017-11-04T05:10:17.825Z,18.50
2017-11-04T05:11:23.641Z,18.50
2017-11-04T05:12:29.257Z,18.50
2017-11-04T05:13:35.123Z,18.50
2017-11-04T05:14:41.081Z,18.50
2017-11-04T05:15:47.051Z,18.50
2017-11-04T05:16:52.876Z,18.50
2017-11-04T05:17:58.777Z,18.50
2017-11-04T05:19:04.930Z,18.50
2017-11-04T05:20:11.105Z,18.50
2017-11-04T05:21:17.008Z,18.50
2017-11-04T05:22:24.133Z,18.50
2017-11-04T05:23:29.976Z,18.50
2017-11-04T05:24:35.841Z,18.50
2017-11-04T05:25:41.601Z,18.50
2017-11-04T05:26:47.660Z,18.50
2017-11-04T05:27:53.674Z,18.50
2017-11-04T05:28:59.434Z,18.50
2017-11-04T05:30:05.588Z,18.50
2017-11-04T05:31:11.701Z,18.40
2017-11-04T05:32:17.748Z,18.20
2017-11-04T05:33:23.522Z,18.10
2017-11-04T05:34:29.190Z,18.10
2017-11-04T05:35:35.034Z,18.10
2017-11-04T05:36:42.565Z,18.10
2017-11-04T05:37:48.537Z,18.20
2017-11-04T05:38:54.502Z,18.20
2017-11-04T05:40:00.355Z,18.30
2017-11-04T05:41:06.254Z,18.30
2017-11-04T05:42:12.207Z,18.40
2017-11-04T05:43:18.369Z,18.50
2017-11-04T05:44:24.406Z,18.50
2017-11-04T05:45:30.353Z,18.60
2017-11-04T05:46:36.308Z,18.70
2017-11-04T05:47:42.378Z,18.70
2017-11-04T05:48:48.392Z,18.80
2017-11-04T05:49:54.375Z,18.90
2017-11-04T05:51:02.060Z,19.00
2017-11-04T05:52:08.483Z,19.10
2017-11-04T05:53:14.440Z,19.20
2017-11-04T05:54:20.260Z,19.20
2017-11-04T05:55:26.349Z,19.30
2017-11-04T05:56:31.788Z,19.40
2017-11-04T05:57:36.804Z,19.50
2017-11-04T05:58:42.302Z,19.60
2017-11-04T05:59:48.572Z,19.60
2017-11-04T06:00:54.535Z,19.70
2017-11-04T06:02:00.776Z,19.70
2017-11-04T06:03:06.920Z,19.80
2017-11-04T06:04:12.882Z,19.80
2017-11-04T06:05:19.437Z,19.90
2017-11-04T06:06:25.358Z,19.90
2017-11-04T06:07:31.155Z,20.00
2017-11-04T06:08:37.139Z,20.00
2017-11-04T06:09:43.234Z,20.10
2017-11-04T06:10:49.484Z,20.10
2017-11-04T06:11:55.220Z,20.10
2017-11-04T06:13:00.860Z,20.10
2017-11-04T06:14:06.683Z,20.20
2017-11-04T06:15:12.305Z,20.20
2017-11-04T06:16:18.089Z,20.20
2017-11-04T06:17:24.039Z,20.20
2017-11-04T06:18:29.897Z,20.20
2017-11-04T06:19:37.820Z,20.20
2017-11-04T06:20:43.715Z,20.20
2017-11-04T06:21:49.765Z,20.20
2017-11-04T06:22:55.592Z,20.20
2017-11-04T06:24:01.573Z,20.30
2017-11-04T06:25:07.522Z,20.20
2017-11-04T06:26:13.235Z,20.30
2017-11-04T06:27:18.942Z,20.20
2017-11-04T06:28:24.921Z,20.20
2017-11-04T06:29:30.826Z,20.30
2017-11-04T06:30:37.131Z,20.30
2017-11-04T06:31:43.091Z,20.20
2017-11-04T06:32:48.798Z,20.30
2017-11-04T06:33:56.101Z,20.20
2017-11-04T06:35:02.817Z,20.30
2017-11-04T06:36:08.925Z,20.30
2017-11-04T06:37:14.762Z,20.20
2017-11-04T06:38:20.867Z,20.30
2017-11-04T06:39:26.940Z,20.20
2017-11-04T06:40:33.603Z,20.30
2017-11-04T06:41:39.969Z,20.20
2017-11-04T06:42:45.994Z,20.20
2017-11-04T06:43:52.283Z,20.20
2017-11-04T06:44:58.697Z,20.20
2017-11-04T06:46:05.280Z,20.20
2017-11-04T06:47:12.837Z,20.20
2017-11-04T06:48:18.993Z,20.10
2017-11-04T06:49:24.983Z,20.10
2017-11-04T06:50:30.814Z,20.00
2017-11-04T06:51:36.739Z,20.00
2017-11-04T06:52:43.235Z,20.00
2017-11-04T06:53:49.331Z,19.90
2017-11-04T06:54:55.313Z,19.90
2017-11-04T06:56:01.515Z,19.90
2017-11-04T06:57:07.415Z,19.90
2017-11-04T06:58:13.530Z,19.80
2017-11-04T06:59:19.569Z,19.80
2017-11-04T07:00:25.567Z,19.80
2017-11-04T07:01:33.226Z,19.80
2017-11-04T07:02:39.073Z,19.80
2017-11-04T07:03:44.851Z,19.80
2017-11-04T07:04:50.671Z,19.80
2017-11-04T07:05:56.830Z,19.80
2017-11-04T07:07:03.233Z,19.80
2017-11-04T07:08:09.796Z,19.70
2017-11-04T07:09:16.060Z,19.70
2017-11-04T07:10:22.041Z,19.80
2017-11-04T07:11:27.998Z,19.80
2017-11-04T07:12:33.988Z,19.80
2017-11-04T07:13:40.195Z,19.80
2017-11-04T07:14:47.992Z,19.70
2017-11-04T07:15:53.882Z,19.70
2017-11-04T07:17:00.030Z,19.70
2017-11-04T07:18:06.095Z,19.70
2017-11-04T07:19:12.041Z,19.70
2017-11-04T07:20:17.774Z,19.60
2017-11-04T07:21:23.671Z,19.60
2017-11-04T07:22:29.908Z,19.70
2017-11-04T07:23:35.968Z,19.60
2017-11-04T07:24:41.677Z,19.70
2017-11-04T07:25:47.621Z,19.60
2017-11-04T07:26:53.633Z,19.60
2017-11-04T07:27:59.488Z,19.60
2017-11-04T07:29:07.198Z,19.60
2017-11-04T07:30:13.781Z,19.60
2017-11-04T07:31:19.698Z,19.60
2017-11-04T07:32:25.849Z,19.60
2017-11-04T07:33:31.824Z,19.60
2017-11-04T07:34:37.616Z,19.60
2017-11-04T07:35:43.726Z,19.60
2017-11-04T07:36:49.494Z,19.50
2017-11-04T07:37:55.263Z,19.60
2017-11-04T07:39:01.567Z,19.60
2017-11-04T07:40:07.699Z,19.60
2017-11-04T07:41:13.447Z,19.60
2017-11-04T07:42:19.535Z,19.60
2017-11-04T07:43:25.639Z,19.60
2017-11-04T07:44:31.781Z,19.60
2017-11-04T07:45:37.743Z,19.60
2017-11-04T07:46:43.685Z,19.60
2017-11-04T07:47:49.913Z,19.60
2017-11-04T07:48:55.900Z,19.60
2017-11-04T07:50:02.197Z,19.60
2017-11-04T07:51:08.379Z,19.60
2017-11-04T07:52:13.951Z,19.60
2017-11-04T07:53:19.226Z,19.60
2017-11-04T07:54:24.278Z,19.60
2017-11-04T07:55:29.699Z,19.60
2017-11-04T07:56:34.582Z,19.60
2017-11-04T07:57:40.101Z,19.60
2017-11-04T07:58:45.648Z,19.60
2017-11-04T07:59:50.946Z,19.60
2017-11-04T08:00:55.954Z,19.60
2017-11-04T08:02:01.213Z,19.60
2017-11-04T08:03:06.904Z,19.60
2017-11-04T08:04:12.529Z,19.60
2017-11-04T08:05:17.696Z,19.60
2017-11-04T08:06:22.837Z,19.60
2017-11-04T08:07:28.033Z,19.50
2017-11-04T08:08:33.292Z,19.50
2017-11-04T08:09:38.404Z,19.50
2017-11-04T08:10:43.577Z,19.50
2017-11-04T08:11:48.718Z,19.50
2017-11-04T08:12:53.726Z,19.50
2017-11-04T08:13:58.876Z,19.50
2017-11-04T08:15:03.986Z,19.50
2017-11-04T08:16:10.293Z,19.50
2017-11-04T08:17:15.546Z,19.50
2017-11-04T08:18:20.760Z,19.50
2017-11-04T08:19:25.836Z,19.50
2017-11-04T08:20:30.876Z,19.50
2017-11-04T08:21:36.032Z,19.50
2017-11-04T08:22:41.025Z,19.50
2017-11-04T08:23:45.896Z,19.50
2017-11-04T08:24:50.951Z,19.50
2017-11-04T08:25:56.095Z,19.50
2017-11-04T08:27:01.671Z,19.50
2017-11-04T08:28:07.054Z,19.50
2017-11-04T08:29:12.070Z,19.50
2017-11-04T08:30:17.266Z,19.50
2017-11-04T08:31:22.540Z,19.50
2017-11-04T08:32:27.471Z,19.40
2017-11-04T08:33:33.534Z,19.40
2017-11-04T08:34:38.807Z,19.40
2017-11-04T08:35:43.874Z,19.40
2017-11-04T08:36:48.938Z,19.40
2017-11-04T08:37:54.013Z,19.50
2017-11-04T08:38:58.891Z,19.40
2017-11-04T08:40:04.067Z,19.40
2017-11-04T08:41:09.202Z,19.50
2017-11-04T08:42:14.678Z,19.40
2017-11-04T08:43:19.987Z,19.40
2017-11-04T08:44:25.016Z,19.50
2017-11-04T08:45:30.120Z,19.40
2017-11-04T08:46:35.265Z,19.40
2017-11-04T08:47:40.268Z,19.40
2017-11-04T08:48:45.557Z,19.60
2017-11-04T08:49:52.478Z,19.60
2017-11-04T08:50:57.498Z,19.70
2017-11-04T08:52:02.642Z,19.70
2017-11-04T08:53:07.584Z,19.70
2017-11-04T08:54:12.684Z,19.70
2017-11-04T08:55:17.854Z,19.60
2017-11-04T08:56:23.011Z,19.60
2017-11-04T08:57:28.335Z,19.50
2017-11-04T08:58:33.540Z,19.40
2017-11-04T08:59:38.540Z,19.20
2017-11-04T09:00:43.716Z,19.10
2017-11-04T09:01:48.997Z,19.00
2017-11-04T09:02:54.202Z,18.90
2017-11-04T09:03:59.367Z,18.80
2017-11-04T09:05:04.688Z,18.70
2017-11-04T09:06:10.359Z,18.70
2017-11-04T09:07:16.732Z,18.70
2017-11-04T09:08:21.787Z,18.70
2017-11-04T09:09:27.013Z,18.80
2017-11-04T09:10:32.299Z,18.80
2017-11-04T09:11:37.380Z,18.90
2017-11-04T09:12:42.624Z,18.90
2017-11-04T09:13:47.718Z,19.00
2017-11-04T09:14:52.894Z,19.00
2017-11-04T09:15:58.105Z,19.00
2017-11-04T09:17:03.809Z,19.10
2017-11-04T09:18:09.145Z,19.10
2017-11-04T09:19:14.219Z,19.20
2017-11-04T09:20:19.734Z,19.20
2017-11-04T09:21:25.032Z,19.20
2017-11-04T09:22:30.321Z,19.30
2017-11-04T09:23:37.485Z,19.30
2017-11-04T09:24:42.926Z,19.30
2017-11-04T09:25:48.153Z,19.30
2017-11-04T09:26:53.332Z,19.40
2017-11-04T09:27:58.392Z,19.40
2017-11-04T09:29:03.793Z,19.40
2017-11-04T09:30:09.234Z,19.40
2017-11-04T09:31:14.379Z,19.40
2017-11-04T09:32:19.875Z,19.50
2017-11-04T09:33:25.199Z,19.50
2017-11-04T09:34:30.574Z,19.50
2017-11-04T09:35:35.772Z,19.50
2017-11-04T09:36:40.805Z,19.50
2017-11-04T09:37:46.121Z,19.50
2017-11-04T09:38:51.272Z,19.50
2017-11-04T09:39:56.637Z,19.60
2017-11-04T09:41:02.421Z,19.50
2017-11-04T09:42:07.637Z,19.60
2017-11-04T09:43:13.555Z,19.60
2017-11-04T09:44:19.805Z,19.60
2017-11-04T09:45:25.225Z,19.60
2017-11-04T09:46:30.438Z,19.60
2017-11-04T09:47:35.778Z,19.60
2017-11-04T09:48:41.054Z,19.60
2017-11-04T09:49:46.257Z,19.60
2017-11-04T09:50:51.617Z,19.60
2017-11-04T09:51:56.807Z,19.60
2017-11-04T09:53:02.551Z,19.70
2017-11-04T09:54:08.103Z,19.60
2017-11-04T09:55:13.572Z,19.60
2017-11-04T09:56:20.073Z,19.70
2017-11-04T09:57:25.467Z,19.70
2017-11-04T09:58:31.079Z,19.70
2017-11-04T09:59:36.331Z,19.70
2017-11-04T10:00:41.523Z,19.70
2017-11-04T10:01:46.908Z,19.70
2017-11-04T10:02:52.211Z,19.70
2017-11-04T10:03:57.484Z,19.70
2017-11-04T10:05:02.852Z,19.70
2017-11-04T10:06:08.359Z,19.70
2017-11-04T10:07:13.820Z,19.70
2017-11-04T10:08:19.466Z,19.70
2017-11-04T10:09:24.988Z,19.70
2017-11-04T10:10:30.359Z,19.70
2017-11-04T10:11:36.184Z,19.70
2017-11-04T10:12:42.848Z,19.70
2017-11-04T10:13:47.899Z,19.70
2017-11-04T10:14:53.240Z,19.70
2017-11-04T10:15:58.446Z,19.70
2017-11-04T10:17:03.853Z,19.70
2017-11-04T10:18:09.169Z,19.70
2017-11-04T10:19:14.496Z,19.70
2017-11-04T10:20:19.605Z,19.70
2017-11-04T10:21:24.828Z,19.70
2017-11-04T10:22:29.747Z,19.70
2017-11-04T10:23:34.815Z,19.70
2017-11-04T10:24:40.090Z,19.70
2017-11-04T10:25:45.338Z,19.80
2017-11-04T10:26:50.560Z,19.70
2017-11-04T10:27:55.622Z,19.70
2017-11-04T10:29:00.924Z,19.70
2017-11-04T10:30:06.306Z,19.70
2017-11-04T10:31:11.925Z,19.70
2017-11-04T10:32:16.984Z,19.70
2017-11-04T10:33:22.266Z,19.70
2017-11-04T10:34:27.205Z,19.70
2017-11-04T10:35:32.322Z,19.70
2017-11-04T10:36:37.623Z,19.70
2017-11-04T10:37:44.106Z,19.70
2017-11-04T10:38:49.438Z,19.80
2017-11-04T10:39:54.833Z,19.80
2017-11-04T10:41:00.010Z,19.80
2017-11-04T10:42:05.220Z,19.80
2017-11-04T10:43:10.338Z,19.80
2017-11-04T10:44:15.615Z,19.80
2017-11-04T10:45:21.804Z,19.90
2017-11-04T10:46:27.571Z,19.90
2017-11-04T10:47:32.983Z,19.90
2017-11-04T10:48:38.324Z,19.90
2017-11-04T10:49:43.313Z,19.90
2017-11-04T10:50:48.524Z,19.90
2017-11-04T10:51:53.487Z,20.00
2017-11-04T10:52:58.748Z,20.00
2017-11-04T10:54:04.446Z,20.00
2017-11-04T10:55:09.762Z,20.00
2017-11-04T10:56:14.853Z,20.00
2017-11-04T10:57:19.944Z,20.10
2017-11-04T10:58:25.124Z,20.10
2017-11-04T10:59:30.214Z,20.10
2017-11-04T11:00:35.542Z,20.10
2017-11-04T11:01:40.945Z,20.10
2017-11-04T11:02:47.943Z,20.10
2017-11-04T11:03:52.977Z,20.10
2017-11-04T11:04:58.196Z,20.10
2017-11-04T11:06:03.601Z,20.10
2017-11-04T11:07:08.627Z,20.10
2017-11-04T11:08:13.797Z,20.10
2017-11-04T11:09:19.197Z,20.10
2017-11-04T11:10:24.431Z,20.10
2017-11-04T11:11:29.735Z,20.10
2017-11-04T11:12:34.995Z,20.10
2017-11-04T11:13:40.047Z,20.10
2017-11-04T11:14:45.328Z,20.10
2017-11-04T11:15:50.608Z,20.10
2017-11-04T11:16:55.916Z,20.10
2017-11-04T11:18:01.170Z,20.10
2017-11-04T11:19:07.795Z,20.10
2017-11-04T11:20:13.212Z,20.10
2017-11-04T11:21:18.409Z,20.00
2017-11-04T11:22:23.669Z,20.10
2017-11-04T11:23:28.850Z,20.10
2017-11-04T11:24:34.089Z,20.00
2017-11-04T11:25:39.172Z,20.00
2017-11-04T11:26:44.612Z,20.00
2017-11-04T11:27:49.736Z,20.00
2017-11-04T11:28:54.885Z,20.00
2017-11-04T11:30:00.351Z,20.00
2017-11-04T11:31:06.074Z,20.00
2017-11-04T11:32:11.457Z,20.00
2017-11-04T11:33:16.692Z,20.00
2017-11-04T11:34:22.040Z,20.00
2017-11-04T11:35:28.691Z,20.00
2017-11-04T11:36:34.122Z,20.00
2017-11-04T11:37:39.595Z,20.00
2017-11-04T11:38:44.792Z,20.00
2017-11-04T11:39:50.329Z,20.00
2017-11-04T11:40:56.058Z,20.00
2017-11-04T11:42:01.601Z,20.00
2017-11-04T11:43:06.893Z,20.00
2017-11-04T11:44:12.310Z,20.00
2017-11-04T11:45:17.530Z,20.10
2017-11-04T11:46:23.029Z,20.00
2017-11-04T11:47:28.384Z,20.00
2017-11-04T11:48:33.723Z,20.00
2017-11-04T11:49:39.017Z,20.00
2017-11-04T11:50:44.363Z,20.00
2017-11-04T11:51:50.445Z,20.00
2017-11-04T11:52:55.792Z,20.00
2017-11-04T11:54:01.178Z,20.00
2017-11-04T11:55:06.656Z,20.00
2017-11-04T11:56:12.306Z,19.90
2017-11-04T11:57:17.584Z,19.90
2017-11-04T11:58:23.448Z,19.90
2017-11-04T11:59:28.863Z,19.90
2017-11-04T12:00:34.271Z,19.90
2017-11-04T12:01:39.535Z,19.90
2017-11-04T12:02:45.147Z,19.90
2017-11-04T12:03:50.397Z,19.90
2017-11-04T12:04:55.805Z,19.80
2017-11-04T12:06:01.538Z,19.80
2017-11-04T12:07:06.849Z,19.80
2017-11-04T12:08:13.071Z,19.80
2017-11-04T12:09:19.111Z,19.80
2017-11-04T12:10:24.887Z,19.80
2017-11-04T12:11:30.302Z,19.80
2017-11-04T12:12:38.381Z,19.80
2017-11-04T12:13:44.632Z,19.80
2017-11-04T12:14:50.253Z,19.80
2017-11-04T12:15:55.788Z,19.90
2017-11-04T12:17:01.278Z,19.90
2017-11-04T12:18:06.501Z,19.80
2017-11-04T12:19:11.818Z,19.90
2017-11-04T12:20:17.162Z,19.80
2017-11-04T12:21:22.606Z,19.80
2017-11-04T12:22:28.085Z,19.90
2017-11-04T12:23:34.083Z,19.90
2017-11-04T12:24:39.469Z,19.90
2017-11-04T12:25:45.101Z,19.90
2017-11-04T12:26:50.472Z,19.90
2017-11-04T12:27:55.655Z,19.90
2017-11-04T12:29:01.135Z,19.90
2017-11-04T12:30:06.715Z,20.00
2017-11-04T12:31:12.208Z,20.00
2017-11-04T12:32:17.826Z,20.00
2017-11-04T12:33:23.306Z,20.00
2017-11-04T12:34:28.824Z,20.00
2017-11-04T12:35:34.337Z,20.00
2017-11-04T12:36:39.777Z,20.00
2017-11-04T12:37:45.447Z,20.00
2017-11-04T12:38:52.278Z,20.10
2017-11-04T12:39:57.557Z,20.10
2017-11-04T12:41:03.078Z,20.10
2017-11-04T12:42:08.541Z,20.10
2017-11-04T12:43:14.101Z,20.10
2017-11-04T12:44:20.178Z,20.10
2017-11-04T12:45:25.499Z,20.10
2017-11-04T12:46:31.169Z,20.10
2017-11-04T12:47:37.106Z,20.00
2017-11-04T12:48:42.618Z,20.10
2017-11-04T12:49:48.155Z,20.10
2017-11-04T12:50:53.619Z,20.00
2017-11-04T12:51:59.217Z,20.00
2017-11-04T12:53:04.883Z,20.10
2017-11-04T12:54:10.581Z,20.00
2017-11-04T12:55:16.227Z,20.00
2017-11-04T12:56:21.210Z,20.00
2017-11-04T12:57:26.475Z,20.00
2017-11-04T12:58:32.330Z,19.90
2017-11-04T12:59:37.775Z,19.90
2017-11-04T13:00:43.114Z,19.90
2017-11-04T13:01:48.645Z,19.90
2017-11-04T13:02:54.211Z,19.90
2017-11-04T13:04:00.414Z,19.90
2017-11-04T13:05:06.210Z,19.90
2017-11-04T13:06:11.941Z,19.80
2017-11-04T13:07:17.527Z,19.90
2017-11-04T13:08:22.924Z,19.80
2017-11-04T13:09:28.357Z,19.80
2017-11-04T13:10:34.843Z,19.80
2017-11-04T13:11:40.354Z,19.80
2017-11-04T13:12:46.067Z,19.80
2017-11-04T13:13:51.437Z,19.80
2017-11-04T13:14:56.741Z,19.80
2017-11-04T13:16:02.955Z,19.70
2017-11-04T13:17:08.723Z,19.70
2017-11-04T13:18:14.441Z,19.60
2017-11-04T13:19:20.009Z,19.50
2017-11-04T13:20:25.390Z,19.40
2017-11-04T13:21:30.578Z,19.30
2017-11-04T13:22:35.946Z,19.20
2017-11-04T13:23:41.039Z,19.20
2017-11-04T13:24:46.391Z,19.10
2017-11-04T13:25:52.907Z,19.10
2017-11-04T13:26:58.365Z,19.00
2017-11-04T13:28:03.924Z,19.00
2017-11-04T13:29:08.885Z,19.00
2017-11-04T13:30:13.814Z,19.00
2017-11-04T13:31:18.792Z,19.00
2017-11-04T13:32:23.723Z,19.00
2017-11-04T13:33:28.709Z,19.00
2017-11-04T13:34:33.552Z,19.00
2017-11-04T13:35:38.886Z,19.10
2017-11-04T13:36:44.016Z,19.10
2017-11-04T13:37:49.026Z,19.10
2017-11-04T13:38:53.746Z,19.20
2017-11-04T13:39:58.688Z,19.20
2017-11-04T13:41:03.619Z,19.20
2017-11-04T13:42:08.647Z,19.20
2017-11-04T13:43:13.485Z,19.20
2017-11-04T13:44:18.514Z,19.20
2017-11-04T13:45:23.336Z,19.30
2017-11-04T13:46:28.256Z,19.20
2017-11-04T13:47:33.092Z,19.20
2017-11-04T13:48:37.832Z,19.30
2017-11-04T13:49:42.830Z,19.30
2017-11-04T13:50:47.832Z,19.30
2017-11-04T13:51:52.637Z,19.30
2017-11-04T13:52:57.702Z,19.30
2017-11-04T13:54:02.578Z,19.30
2017-11-04T13:55:07.683Z,19.30
2017-11-04T13:56:12.511Z,19.30
2017-11-04T13:57:17.810Z,19.30
2017-11-04T13:58:22.816Z,19.30
2017-11-04T13:59:27.926Z,19.30
2017-11-04T14:00:33.036Z,19.30
2017-11-04T14:01:37.842Z,19.30